createdAt,value
2022-08-05T00:00:20.311Z,7.00
2022-08-05T00:02:51.089Z,5.13
2022-08-05T00:06:01.782Z,5.38
2022-08-05T00:08:09.078Z,3.88
2022-08-05T00:10:55.955Z,3.40
2022-08-05T00:13:38.260Z,4.15
2022-08-05T00:16:12.855Z,4.05
2022-08-05T00:18:44.259Z,3.88
2022-08-05T00:21:14.454Z,3.92
2022-08-05T00:23:45.938Z,4.38
2022-08-05T00:26:16.461Z,4.72
2022-08-05T00:28:45.764Z,4.25
2022-08-05T00:31:13.594Z,4.28
2022-08-05T00:34:54.614Z,4.80
2022-08-05T00:37:10.632Z,4.70
2022-08-05T00:39:13.708Z,4.55
2022-08-05T00:41:52.028Z,3.70
2022-08-05T00:44:30.326Z,4.70
2022-08-05T00:47:03.660Z,4.25
2022-08-05T00:49:44.430Z,3.75
2022-08-05T00:52:18.354Z,3.70
2022-08-05T00:54:55.080Z,4.18
2022-08-05T00:57:25.262Z,3.90
2022-08-05T00:59:58.200Z,4.10
2022-08-05T01:02:24.839Z,4.53
2022-08-05T01:04:51.389Z,4.18
2022-08-05T01:07:18.143Z,3.90
2022-08-05T01:09:45.463Z,4.43
2022-08-05T01:12:25.042Z,4.40
2022-08-05T01:15:05.322Z,4.70
2022-08-05T01:17:53.656Z,3.60
2022-08-05T01:20:54.861Z,4.35
2022-08-05T01:24:22.235Z,4.10
2022-08-05T01:27:19.259Z,3.95
2022-08-05T01:29:52.150Z,4.47
2022-08-05T01:32:27.672Z,4.38
2022-08-05T01:35:10.724Z,4.13
2022-08-05T01:37:45.458Z,4.07
2022-08-05T01:40:17.964Z,4.28
2022-08-05T01:42:48.954Z,4.57
2022-08-05T01:45:18.166Z,4.40
2022-08-05T01:47:49.675Z,4.45
2022-08-05T01:50:30.947Z,4.47
2022-08-05T01:53:04.263Z,5.30
2022-08-05T01:55:36.237Z,4.20
2022-08-05T01:58:18.882Z,4.75
2022-08-05T02:00:57.258Z,4.55
2022-08-05T02:03:34.254Z,4.45
2022-08-05T02:06:33.603Z,4.18
2022-08-05T02:08:58.193Z,4.53
2022-08-05T02:11:33.259Z,4.05
2022-08-05T02:14:13.051Z,3.88
2022-08-05T02:16:52.865Z,4.45
2022-08-05T02:19:28.580Z,4.40
2022-08-05T02:22:29.963Z,4.05
2022-08-05T02:25:04.962Z,4.32
2022-08-05T02:27:58.498Z,4.28
2022-08-05T02:30:32.370Z,4.35
2022-08-05T02:33:04.746Z,4.07
2022-08-05T02:35:38.090Z,3.85
2022-08-05T02:38:19.281Z,4.10
2022-08-05T02:40:46.900Z,4.18
2022-08-05T02:43:18.075Z,4.45
2022-08-05T02:45:52.848Z,3.95
2022-08-05T02:48:29.582Z,4.25
2022-08-05T02:51:02.574Z,4.47
2022-08-05T02:53:39.468Z,3.70
2022-08-05T02:56:15.926Z,4.45
2022-08-05T02:58:51.232Z,4.43
2022-08-05T03:01:25.170Z,4.43
2022-08-05T03:04:02.968Z,4.20
2022-08-05T03:06:56.096Z,4.20
2022-08-05T03:09:36.481Z,4.13
2022-08-05T03:12:06.246Z,4.50
2022-08-05T03:14:34.994Z,4.47
2022-08-05T03:17:12.519Z,4.13
2022-08-05T03:19:39.941Z,4.22
2022-08-05T03:22:16.646Z,4.13
2022-08-05T03:24:50.667Z,4.65
2022-08-05T03:27:19.657Z,4.43
2022-08-05T03:30:07.661Z,4.75
2022-08-05T03:32:34.736Z,5.13
2022-08-05T03:35:04.461Z,4.45
2022-08-05T03:37:31.321Z,5.20
2022-08-05T03:40:12.043Z,4.82
2022-08-05T03:42:41.796Z,4.90
2022-08-05T03:45:22.475Z,4.90
2022-08-05T03:47:51.241Z,6.03
2022-08-05T03:50:18.642Z,5.72
2022-08-05T03:55:53.091Z,4.88
2022-08-05T03:56:10.081Z,5.43
2022-08-05T03:58:48.567Z,5.88
2022-08-05T04:01:21.837Z,6.30
2022-08-05T04:04:08.883Z,7.68
2022-08-05T04:06:38.057Z,10.10
2022-08-05T04:09:08.395Z,9.27
2022-08-05T04:11:47.631Z,7.00
2022-08-05T04:14:19.524Z,6.28
2022-08-05T04:17:02.088Z,6.05
2022-08-05T04:19:29.910Z,5.55
2022-08-05T04:22:08.589Z,6.00
2022-08-05T04:24:52.682Z,6.68
2022-08-05T04:27:41.673Z,5.43
2022-08-05T04:30:09.262Z,5.72
2022-08-05T04:32:36.726Z,5.68
2022-08-05T04:35:05.898Z,5.55
2022-08-05T04:38:01.333Z,6.38
2022-08-05T04:40:19.836Z,6.88
2022-08-05T04:42:46.499Z,5.65
2022-08-05T04:45:14.152Z,5.90
2022-08-05T04:47:49.630Z,5.93
2022-08-05T04:50:37.368Z,5.70
2022-08-05T04:53:04.139Z,5.97
2022-08-05T04:55:49.821Z,6.30
2022-08-05T04:58:21.645Z,6.18
2022-08-05T05:00:50.797Z,6.20
2022-08-05T05:03:20.371Z,6.32
2022-08-05T05:06:40.506Z,6.32
2022-08-05T05:08:33.580Z,5.60
2022-08-05T05:11:00.071Z,5.75
2022-08-05T05:13:26.728Z,6.00
2022-08-05T05:16:06.047Z,7.60
2022-08-05T05:18:34.310Z,6.18
2022-08-05T05:21:03.445Z,13.98
2022-08-05T05:24:03.009Z,11.35
2022-08-05T05:28:45.130Z,6.95
2022-08-05T05:31:12.068Z,6.75
2022-08-05T05:33:58.758Z,6.32
2022-08-05T05:36:25.103Z,6.18
2022-08-05T05:38:55.501Z,6.07
2022-08-05T05:41:22.129Z,6.32
2022-08-05T05:43:57.685Z,13.27
2022-08-05T05:46:26.439Z,6.47
2022-08-05T05:48:53.008Z,6.20
2022-08-05T05:51:25.685Z,6.25
2022-08-05T05:53:58.948Z,5.82
2022-08-05T05:56:32.182Z,6.18
2022-08-05T05:59:05.202Z,6.97
2022-08-05T06:01:37.050Z,7.18
2022-08-05T06:04:12.526Z,7.47
2022-08-05T06:06:42.592Z,7.28
2022-08-05T06:09:09.499Z,6.18
2022-08-05T06:12:01.852Z,8.25
2022-08-05T06:14:34.614Z,7.88
2022-08-05T06:17:21.974Z,8.40
2022-08-05T06:19:56.742Z,9.32
2022-08-05T06:22:29.805Z,8.73
2022-08-05T06:24:56.636Z,8.00
2022-08-05T06:28:10.756Z,8.20
2022-08-05T06:30:17.758Z,8.90
2022-08-05T06:32:47.782Z,9.88
2022-08-05T06:35:15.531Z,10.68
2022-08-05T06:37:56.407Z,9.90
2022-08-05T06:40:27.742Z,10.32
2022-08-05T06:42:54.792Z,11.77
2022-08-05T06:46:03.346Z,11.93
2022-08-05T06:48:44.247Z,12.77
2022-08-05T06:50:56.282Z,11.82
2022-08-05T06:53:28.572Z,11.90
2022-08-05T06:55:59.551Z,10.75
2022-08-05T06:58:34.950Z,11.73
2022-08-05T07:01:06.164Z,12.02
2022-08-05T07:03:34.456Z,13.95
2022-08-05T07:06:06.256Z,13.10
2022-08-05T07:08:47.882Z,13.93
2022-08-05T07:11:22.115Z,13.45
2022-08-05T07:14:20.735Z,16.77
2022-08-05T07:18:01.974Z,32.03
2022-08-05T07:22:39.705Z,21.38
2022-08-05T07:25:23.980Z,17.98
2022-08-05T07:28:02.278Z,18.67
2022-08-05T07:33:13.299Z,18.58
2022-08-05T07:36:03.139Z,18.95
2022-08-05T07:38:34.219Z,19.20
2022-08-05T07:42:09.396Z,17.77
2022-08-05T07:43:57.095Z,16.65
2022-08-05T07:46:26.584Z,16.83
2022-08-05T07:49:02.409Z,19.92
2022-08-05T07:51:40.904Z,16.35
2022-08-05T07:54:21.924Z,19.73
2022-08-05T07:57:01.414Z,17.30
2022-08-05T07:59:39.833Z,16.30
2022-08-05T08:02:16.660Z,16.42
2022-08-05T08:04:48.178Z,17.38
2022-08-05T08:07:16.388Z,16.70
2022-08-05T08:09:45.749Z,17.25
2022-08-05T08:12:33.508Z,18.42
2022-08-05T08:15:03.714Z,16.73
2022-08-05T08:17:32.762Z,17.70
2022-08-05T08:20:42.864Z,18.52
2022-08-05T08:22:59.277Z,19.25
2022-08-05T08:25:59.145Z,20.40
2022-08-05T08:30:48.011Z,24.73
2022-08-05T08:33:17.608Z,23.90
2022-08-05T08:35:52.498Z,24.92
2022-08-05T08:38:35.499Z,24.75
2022-08-05T08:41:08.582Z,23.30
2022-08-05T08:45:18.771Z,24.60
2022-08-05T08:46:27.897Z,26.42
2022-08-05T08:49:07.824Z,26.05
2022-08-05T08:52:04.150Z,29.73
2022-08-05T08:54:36.314Z,27.33
2022-08-05T08:57:11.216Z,30.75
2022-08-05T08:59:39.061Z,30.00
2022-08-05T09:02:09.051Z,31.58
2022-08-05T09:04:58.634Z,31.13
2022-08-05T09:07:29.096Z,31.98
2022-08-05T09:10:06.947Z,30.98
2022-08-05T09:12:34.552Z,31.60
2022-08-05T09:15:06.400Z,28.67
2022-08-05T09:17:42.751Z,30.40
2022-08-05T09:20:36.778Z,35.28
2022-08-05T09:23:19.176Z,30.05
2022-08-05T09:26:01.756Z,32.45
2022-08-05T09:28:33.445Z,32.95
2022-08-05T09:31:43.938Z,36.00
2022-08-05T09:34:02.473Z,32.83
2022-08-05T09:36:55.083Z,43.90
2022-08-05T09:39:39.221Z,30.58
2022-08-05T09:42:13.468Z,33.00
2022-08-05T09:44:50.514Z,29.17
2022-08-05T09:47:20.824Z,28.90
2022-08-05T09:50:01.695Z,28.90
2022-08-05T09:52:31.938Z,28.65
2022-08-05T09:55:56.621Z,28.70
2022-08-05T09:57:58.734Z,28.67
2022-08-05T10:00:29.636Z,27.23
2022-08-05T10:02:58.723Z,29.05
2022-08-05T10:05:28.466Z,29.90
2022-08-05T10:08:37.008Z,29.25
2022-08-05T10:10:54.070Z,26.03
2022-08-05T10:13:45.714Z,28.92
2022-08-05T10:16:37.774Z,27.60
2022-08-05T10:19:10.143Z,25.05
2022-08-05T10:21:39.919Z,26.67
2022-08-05T10:24:13.372Z,28.85
2022-08-05T10:26:51.207Z,25.10
2022-08-05T10:29:24.038Z,23.65
2022-08-05T10:32:52.565Z,22.65
2022-08-05T10:35:00.832Z,21.05
2022-08-05T10:37:40.252Z,17.17
2022-08-05T10:40:49.143Z,16.67
2022-08-05T10:43:37.023Z,14.93
2022-08-05T10:46:12.235Z,14.88
2022-08-05T10:48:57.449Z,12.93
2022-08-05T10:51:28.969Z,14.52
2022-08-05T10:54:05.770Z,14.27
2022-08-05T10:56:52.875Z,14.30
2022-08-05T11:00:04.398Z,12.32
2022-08-05T11:02:34.996Z,13.23
2022-08-05T11:05:06.148Z,11.88
2022-08-05T11:08:03.343Z,12.30
2022-08-05T11:10:27.689Z,10.95
2022-08-05T11:12:58.640Z,11.07
2022-08-05T11:16:00.874Z,10.75
2022-08-05T11:18:34.027Z,9.60
2022-08-05T11:21:11.802Z,10.77
2022-08-05T11:24:05.537Z,9.93
2022-08-05T11:26:32.987Z,9.27
2022-08-05T11:29:12.145Z,9.35
2022-08-05T11:31:57.835Z,8.45
2022-08-05T11:34:51.445Z,8.20
2022-08-05T11:38:37.398Z,7.50
2022-08-05T11:41:15.486Z,6.63
2022-08-05T11:44:05.673Z,5.47
2022-08-05T11:46:58.119Z,5.32
2022-08-05T11:49:28.233Z,3.80
2022-08-05T11:51:57.509Z,3.30
2022-08-05T11:54:34.505Z,2.13
2022-08-05T11:57:08.751Z,2.28
2022-08-05T11:59:51.967Z,2.50
2022-08-05T12:02:30.218Z,2.10
2022-08-05T12:05:07.617Z,2.95
2022-08-05T12:08:03.360Z,2.63
2022-08-05T12:13:16.541Z,2.17
2022-08-05T12:15:49.634Z,2.30
2022-08-05T12:18:33.133Z,1.65
2022-08-05T12:21:19.527Z,1.40
2022-08-05T12:24:06.951Z,1.30
2022-08-05T12:26:44.127Z,1.40
2022-08-05T12:29:26.618Z,1.38
2022-08-05T12:32:01.950Z,1.50
2022-08-05T12:34:36.934Z,1.65
2022-08-05T12:37:17.309Z,1.20
2022-08-05T12:39:51.251Z,1.35
2022-08-05T12:42:20.781Z,1.30
2022-08-05T12:44:48.168Z,1.40
2022-08-05T12:47:30.409Z,1.50
2022-08-05T12:50:03.112Z,1.10
2022-08-05T12:52:42.266Z,1.60
2022-08-05T12:55:23.586Z,1.50
2022-08-05T12:58:50.750Z,1.58
2022-08-05T13:02:02.921Z,1.65
2022-08-05T13:03:32.386Z,1.60
2022-08-05T13:06:01.234Z,1.70
2022-08-05T13:08:32.421Z,1.88
2022-08-05T13:11:04.074Z,1.77
2022-08-05T13:14:06.133Z,1.80
2022-08-05T13:18:57.709Z,1.75
2022-08-05T13:21:27.694Z,1.83
2022-08-05T13:23:55.534Z,1.90
2022-08-05T13:26:29.821Z,1.80
2022-08-05T13:28:57.269Z,1.92
2022-08-05T13:31:33.835Z,2.05
2022-08-05T13:34:23.365Z,1.90
2022-08-05T13:36:52.479Z,1.80
2022-08-05T13:40:13.196Z,5.03
2022-08-05T13:42:05.918Z,9.77
2022-08-05T13:44:32.544Z,3.75
2022-08-05T13:47:02.568Z,2.00
2022-08-05T13:49:35.688Z,1.83
2022-08-05T13:52:13.297Z,8.85
2022-08-05T13:54:40.194Z,2.90
2022-08-05T13:57:09.018Z,2.80
2022-08-05T13:59:38.302Z,1.92
2022-08-05T14:02:26.495Z,2.15
2022-08-05T14:05:11.898Z,1.85
2022-08-05T14:07:59.919Z,2.05
2022-08-05T14:10:31.464Z,2.10
2022-08-05T14:12:58.928Z,1.95
2022-08-05T14:16:07.071Z,1.80
2022-08-05T14:18:18.111Z,2.00
2022-08-05T14:20:48.042Z,1.80
2022-08-05T14:23:23.964Z,2.33
2022-08-05T14:25:53.998Z,3.53
2022-08-05T14:28:26.444Z,2.00
2022-08-05T14:30:54.396Z,1.90
2022-08-05T14:33:22.626Z,2.03
2022-08-05T14:35:51.844Z,2.10
2022-08-05T14:38:33.365Z,1.77
2022-08-05T14:41:07.200Z,1.95
2022-08-05T14:43:59.587Z,1.77
2022-08-05T14:46:28.131Z,2.45
2022-08-05T14:48:55.777Z,1.95
2022-08-05T14:51:23.868Z,1.85
2022-08-05T14:54:06.609Z,1.80
2022-08-05T14:56:44.248Z,1.95
2022-08-05T14:59:13.231Z,2.65
2022-08-05T15:01:49.008Z,1.77
2022-08-05T15:04:20.735Z,2.40
2022-08-05T15:06:52.056Z,1.92
2022-08-05T15:09:52.624Z,1.70
2022-08-05T15:12:09.476Z,5.63
2022-08-05T15:14:49.370Z,2.00
2022-08-05T15:17:45.834Z,1.80
2022-08-05T15:20:18.492Z,2.15
2022-08-05T15:22:52.266Z,2.58
2022-08-05T15:25:23.521Z,2.30
2022-08-05T15:28:09.083Z,1.92
2022-08-05T15:30:43.369Z,1.98
2022-08-05T15:33:10.857Z,2.00
2022-08-05T15:35:45.115Z,1.98
2022-08-05T15:38:35.932Z,2.22
2022-08-05T15:43:46.851Z,2.50
2022-08-05T15:46:13.700Z,2.45
2022-08-05T15:48:40.831Z,3.10
2022-08-05T15:52:13.642Z,2.95
2022-08-05T15:54:16.486Z,2.20
2022-08-05T15:56:43.674Z,2.42
2022-08-05T15:59:22.063Z,2.30
2022-08-05T16:01:52.648Z,2.00
2022-08-05T16:04:21.238Z,2.50
2022-08-05T16:06:52.934Z,2.95
2022-08-05T16:09:19.451Z,2.15
2022-08-05T16:11:52.824Z,2.20
2022-08-05T16:14:19.844Z,2.17
2022-08-05T16:16:47.362Z,2.40
2022-08-05T16:19:18.960Z,2.17
2022-08-05T16:22:03.466Z,2.28
2022-08-05T16:24:35.928Z,2.50
2022-08-05T16:27:09.212Z,2.15
2022-08-05T16:29:37.689Z,1.95
2022-08-05T16:32:06.458Z,2.33
2022-08-05T16:34:36.315Z,2.33
2022-08-05T16:37:02.860Z,2.75
2022-08-05T16:40:05.332Z,2.30
2022-08-05T16:42:34.937Z,2.72
2022-08-05T16:45:01.908Z,2.22
2022-08-05T16:47:40.882Z,2.25
2022-08-05T16:52:46.078Z,2.90
2022-08-05T16:55:12.880Z,3.58
2022-08-05T16:57:53.472Z,3.00
2022-08-05T17:03:15.191Z,2.50
2022-08-05T17:05:53.218Z,2.90
2022-08-05T17:08:35.919Z,1.85
2022-08-05T17:11:12.723Z,3.17
2022-08-05T17:13:43.892Z,3.17
2022-08-05T17:16:30.232Z,4.85
2022-08-05T17:18:57.095Z,1.90
2022-08-05T17:21:23.938Z,2.42
2022-08-05T17:24:05.510Z,3.63
2022-08-05T17:26:36.257Z,1.77
2022-08-05T17:29:07.426Z,2.50
2022-08-05T17:31:41.523Z,2.10
2022-08-05T17:34:30.123Z,3.50
2022-08-05T17:37:02.289Z,3.38
2022-08-05T17:39:34.140Z,1.70
2022-08-05T17:42:17.296Z,1.80
2022-08-05T17:44:50.375Z,1.60
2022-08-05T17:47:21.884Z,1.90
2022-08-05T17:50:00.429Z,2.30
2022-08-05T17:52:32.732Z,2.10
2022-08-05T17:55:00.529Z,1.77
2022-08-05T17:57:28.029Z,1.90
2022-08-05T18:00:03.266Z,2.05
2022-08-05T18:02:33.060Z,1.80
2022-08-05T18:05:03.155Z,1.80
2022-08-05T18:07:41.210Z,1.88
2022-08-05T18:10:11.276Z,2.20
2022-08-05T18:12:39.278Z,1.88
2022-08-05T18:15:06.774Z,2.35
2022-08-05T18:18:00.480Z,2.03
2022-08-05T18:20:29.175Z,2.10
2022-08-05T18:22:57.919Z,1.73
2022-08-05T18:25:33.080Z,2.10
2022-08-05T18:28:01.714Z,2.08
2022-08-05T18:30:33.052Z,2.20
2022-08-05T18:33:00.370Z,2.17
2022-08-05T18:35:50.038Z,1.83
2022-08-05T18:38:19.131Z,1.67
2022-08-05T18:43:42.703Z,1.70
2022-08-05T18:46:10.193Z,2.00
2022-08-05T18:48:41.460Z,2.08
2022-08-05T18:52:04.501Z,1.70
2022-08-05T18:54:14.906Z,1.90
2022-08-05T18:56:41.775Z,1.70
2022-08-05T18:59:43.923Z,1.83
2022-08-05T19:02:04.718Z,1.70
2022-08-05T19:05:03.250Z,1.70
2022-08-05T19:07:24.875Z,1.70
2022-08-05T19:09:57.172Z,1.90
2022-08-05T19:12:25.511Z,1.70
2022-08-05T19:15:00.458Z,1.80
2022-08-05T19:18:08.587Z,1.88
2022-08-05T19:20:15.769Z,2.13
2022-08-05T19:22:44.174Z,2.20
2022-08-05T19:25:11.119Z,1.80
2022-08-05T19:27:56.154Z,2.60
2022-08-05T19:30:22.671Z,2.10
2022-08-05T19:32:50.390Z,2.03
2022-08-05T19:35:16.928Z,4.35
2022-08-05T19:38:06.450Z,2.63
2022-08-05T19:40:34.779Z,1.70
2022-08-05T19:43:05.738Z,1.75
2022-08-05T19:45:36.542Z,3.08
2022-08-05T19:48:05.274Z,1.73
2022-08-05T19:50:32.299Z,1.85
2022-08-05T19:53:09.307Z,1.77
2022-08-05T19:56:12.511Z,1.95
2022-08-05T19:58:29.222Z,1.85
2022-08-05T20:00:56.601Z,1.60
2022-08-05T20:03:25.357Z,2.55
2022-08-05T20:05:56.371Z,2.08
2022-08-05T20:08:24.380Z,1.80
2022-08-05T20:10:52.284Z,1.70
2022-08-05T20:13:29.782Z,1.60
2022-08-05T20:15:57.680Z,1.67
2022-08-05T20:18:33.699Z,1.70
2022-08-05T20:21:05.302Z,1.80
2022-08-05T20:23:39.378Z,2.17
2022-08-05T20:26:17.284Z,1.60
2022-08-05T20:28:50.460Z,1.85
2022-08-05T20:31:21.682Z,1.70
2022-08-05T20:33:50.188Z,1.83
2022-08-05T20:36:17.886Z,1.77
2022-08-05T20:38:53.453Z,1.60
2022-08-05T20:41:27.190Z,1.73
2022-08-05T20:44:18.758Z,1.63
2022-08-05T20:46:54.784Z,1.63
2022-08-05T20:49:24.346Z,1.58
2022-08-05T20:51:54.137Z,1.75
2022-08-05T20:54:22.115Z,1.50
2022-08-05T20:56:49.116Z,1.58
2022-08-05T20:59:19.175Z,1.65
2022-08-05T21:01:53.605Z,1.70
2022-08-05T21:04:20.191Z,1.60
2022-08-05T21:06:46.761Z,1.63
2022-08-05T21:09:15.072Z,1.25
2022-08-05T21:12:10.868Z,1.50
2022-08-05T21:14:31.473Z,1.40
2022-08-05T21:17:05.362Z,1.60
2022-08-05T21:19:46.648Z,1.40
2022-08-05T21:22:14.600Z,1.63
2022-08-05T21:24:41.132Z,1.42
2022-08-05T21:27:09.170Z,1.67
2022-08-05T21:29:40.659Z,1.60
2022-08-05T21:32:07.766Z,1.38
2022-08-05T21:34:35.651Z,1.50
2022-08-05T21:37:02.519Z,1.58
2022-08-05T21:39:29.528Z,1.45
2022-08-05T21:42:01.014Z,2.00
2022-08-05T21:44:28.411Z,2.05
2022-08-05T21:46:57.942Z,1.80
2022-08-05T21:49:48.108Z,2.30
2022-08-05T21:54:48.615Z,2.08
2022-08-05T21:57:31.254Z,2.45
2022-08-05T22:00:07.081Z,2.20
2022-08-05T22:02:38.272Z,2.35
2022-08-05T22:05:05.949Z,2.50
2022-08-05T22:07:40.372Z,2.53
2022-08-05T22:12:59.178Z,2.83
2022-08-05T22:16:01.060Z,2.78
2022-08-05T22:18:25.540Z,2.80
2022-08-05T22:20:52.827Z,2.88
2022-08-05T22:24:02.452Z,3.00
2022-08-05T22:26:43.132Z,2.33
2022-08-05T22:29:17.375Z,2.20
2022-08-05T22:31:45.333Z,2.72
2022-08-05T22:34:12.888Z,2.38
2022-08-05T22:36:52.280Z,2.15
2022-08-05T22:39:21.377Z,2.10
2022-08-05T22:42:09.518Z,1.75
2022-08-05T22:44:34.936Z,1.98
2022-08-05T22:47:05.848Z,1.77
2022-08-05T22:50:20.364Z,1.88
2022-08-05T22:52:30.665Z,1.60
2022-08-05T22:55:01.803Z,1.40
2022-08-05T22:57:36.263Z,1.50
2022-08-05T23:00:07.829Z,1.85
2022-08-05T23:02:40.075Z,1.83
2022-08-05T23:05:14.902Z,1.40
2022-08-05T23:07:48.325Z,1.58
2022-08-05T23:10:20.246Z,2.03
2022-08-05T23:12:54.933Z,1.73
2022-08-05T23:15:27.071Z,1.92
2022-08-05T23:18:00.923Z,1.88
2022-08-05T23:20:30.159Z,1.80
2022-08-05T23:22:58.597Z,2.42
2022-08-05T23:25:51.090Z,2.88
2022-08-05T23:30:43.386Z,2.60
2022-08-05T23:33:26.299Z,2.40
2022-08-05T23:36:05.355Z,2.70
2022-08-05T23:38:31.885Z,2.83
2022-08-05T23:40:58.394Z,2.03
2022-08-05T23:44:04.614Z,2.00
2022-08-05T23:46:21.336Z,1.85
2022-08-05T23:49:00.236Z,2.08
2022-08-05T23:51:52.510Z,2.55
2022-08-05T23:54:25.869Z,2.20
2022-08-05T23:56:55.202Z,2.20
2022-08-05T23:59:23.127Z,2.00
